sensor_id;sensor_type;location;lat;lon;timestamp;P1;durP1;ratioP1;P2;durP2;ratioP2
10851;SDS011;5479;52.046;6.314;2023-07-31T00:02:22;5.23;;;3.30;;
10851;SDS011;5479;52.046;6.314;2023-07-31T00:04:51;5.03;;;3.50;;
10851;SDS011;5479;52.046;6.314;2023-07-31T00:07:19;5.00;;;3.40;;
10851;SDS011;5479;52.046;6.314;2023-07-31T00:09:49;4.97;;;2.93;;
10851;SDS011;5479;52.046;6.314;2023-07-31T00:12:17;4.90;;;3.33;;
10851;SDS011;5479;52.046;6.314;2023-07-31T00:14:46;5.77;;;2.80;;
10851;SDS011;5479;52.046;6.314;2023-07-31T00:17:14;3.83;;;2.43;;
10851;SDS011;5479;52.046;6.314;2023-07-31T00:19:44;4.70;;;2.97;;
10851;SDS011;5479;52.046;6.314;2023-07-31T00:22:12;4.33;;;2.90;;
10851;SDS011;5479;52.046;6.314;2023-07-31T00:24:42;4.23;;;2.70;;
10851;SDS011;5479;52.046;6.314;2023-07-31T00:27:12;4.93;;;3.10;;
10851;SDS011;5479;52.046;6.314;2023-07-31T00:29:41;5.10;;;2.80;;
10851;SDS011;5479;52.046;6.314;2023-07-31T00:32:10;4.57;;;2.77;;
10851;SDS011;5479;52.046;6.314;2023-07-31T00:34:38;5.20;;;3.20;;
10851;SDS011;5479;52.046;6.314;2023-07-31T00:37:19;4.20;;;2.80;;
10851;SDS011;5479;52.046;6.314;2023-07-31T00:39:49;3.90;;;2.60;;
10851;SDS011;5479;52.046;6.314;2023-07-31T00:42:17;4.80;;;2.50;;
10851;SDS011;5479;52.046;6.314;2023-07-31T00:44:45;4.13;;;2.63;;
10851;SDS011;5479;52.046;6.314;2023-07-31T00:47:16;4.10;;;2.50;;
10851;SDS011;5479;52.046;6.314;2023-07-31T00:49:44;4.30;;;2.60;;
10851;SDS011;5479;52.046;6.314;2023-07-31T00:52:13;3.63;;;2.43;;
10851;SDS011;5479;52.046;6.314;2023-07-31T00:54:43;3.87;;;1.93;;
10851;SDS011;5479;52.046;6.314;2023-07-31T00:57:11;3.53;;;2.13;;
10851;SDS011;5479;52.046;6.314;2023-07-31T00:59:39;3.13;;;2.03;;
10851;SDS011;5479;52.046;6.314;2023-07-31T01:02:08;2.73;;;1.87;;
10851;SDS011;5479;52.046;6.314;2023-07-31T01:04:37;4.03;;;2.03;;
10851;SDS011;5479;52.046;6.314;2023-07-31T01:07:07;3.70;;;2.10;;
10851;SDS011;5479;52.046;6.314;2023-07-31T01:09:42;2.77;;;1.87;;
10851;SDS011;5479;52.046;6.314;2023-07-31T01:12:15;4.30;;;2.30;;
10851;SDS011;5479;52.046;6.314;2023-07-31T01:15:01;4.57;;;2.50;;
10851;SDS011;5479;52.046;6.314;2023-07-31T01:17:32;7.00;;;4.47;;
10851;SDS011;5479;52.046;6.314;2023-07-31T01:20:02;10.73;;;5.33;;
10851;SDS011;5479;52.046;6.314;2023-07-31T01:22:53;11.53;;;6.73;;
10851;SDS011;5479;52.046;6.314;2023-07-31T01:28:29;16.47;;;9.10;;
10851;SDS011;5479;52.046;6.314;2023-07-31T01:31:05;21.37;;;10.40;;
10851;SDS011;5479;52.046;6.314;2023-07-31T01:33:35;23.00;;;10.43;;
10851;SDS011;5479;52.046;6.314;2023-07-31T01:36:05;24.20;;;11.37;;
10851;SDS011;5479;52.046;6.314;2023-07-31T01:38:33;24.00;;;11.73;;
10851;SDS011;5479;52.046;6.314;2023-07-31T01:41:02;26.77;;;13.20;;
10851;SDS011;5479;52.046;6.314;2023-07-31T01:43:30;30.00;;;14.00;;
10851;SDS011;5479;52.046;6.314;2023-07-31T01:46:05;29.03;;;14.00;;
10851;SDS011;5479;52.046;6.314;2023-07-31T01:48:33;28.83;;;14.43;;
10851;SDS011;5479;52.046;6.314;2023-07-31T01:51:03;33.77;;;15.67;;
10851;SDS011;5479;52.046;6.314;2023-07-31T01:53:31;30.97;;;14.97;;
10851;SDS011;5479;52.046;6.314;2023-07-31T01:55:59;32.53;;;15.80;;
10851;SDS011;5479;52.046;6.314;2023-07-31T01:58:29;36.10;;;15.27;;
10851;SDS011;5479;52.046;6.314;2023-07-31T02:00:57;32.40;;;15.43;;
10851;SDS011;5479;52.046;6.314;2023-07-31T02:03:25;36.67;;;16.20;;
10851;SDS011;5479;52.046;6.314;2023-07-31T02:05:53;32.43;;;15.73;;
10851;SDS011;5479;52.046;6.314;2023-07-31T02:08:23;30.40;;;15.20;;
10851;SDS011;5479;52.046;6.314;2023-07-31T02:10:51;30.13;;;16.10;;
10851;SDS011;5479;52.046;6.314;2023-07-31T02:13:19;29.27;;;15.37;;
10851;SDS011;5479;52.046;6.314;2023-07-31T02:15:49;35.40;;;14.83;;
10851;SDS011;5479;52.046;6.314;2023-07-31T02:18:18;35.70;;;15.60;;
10851;SDS011;5479;52.046;6.314;2023-07-31T02:20:48;29.20;;;14.77;;
10851;SDS011;5479;52.046;6.314;2023-07-31T02:23:17;27.80;;;15.17;;
10851;SDS011;5479;52.046;6.314;2023-07-31T02:25:45;31.83;;;15.53;;
10851;SDS011;5479;52.046;6.314;2023-07-31T02:28:14;29.20;;;14.80;;
10851;SDS011;5479;52.046;6.314;2023-07-31T02:30:43;26.20;;;14.50;;
10851;SDS011;5479;52.046;6.314;2023-07-31T02:33:14;25.63;;;13.70;;
10851;SDS011;5479;52.046;6.314;2023-07-31T02:35:42;25.87;;;13.00;;
10851;SDS011;5479;52.046;6.314;2023-07-31T02:38:16;34.13;;;14.20;;
10851;SDS011;5479;52.046;6.314;2023-07-31T02:40:44;29.57;;;13.63;;
10851;SDS011;5479;52.046;6.314;2023-07-31T02:43:17;23.40;;;13.17;;
10851;SDS011;5479;52.046;6.314;2023-07-31T02:45:50;23.83;;;12.80;;
10851;SDS011;5479;52.046;6.314;2023-07-31T02:48:20;27.23;;;13.47;;
10851;SDS011;5479;52.046;6.314;2023-07-31T02:50:55;28.33;;;12.60;;
10851;SDS011;5479;52.046;6.314;2023-07-31T02:53:23;24.33;;;13.10;;
10851;SDS011;5479;52.046;6.314;2023-07-31T02:55:52;24.10;;;13.03;;
10851;SDS011;5479;52.046;6.314;2023-07-31T02:58:21;23.00;;;13.17;;
10851;SDS011;5479;52.046;6.314;2023-07-31T03:00:49;22.97;;;13.07;;
10851;SDS011;5479;52.046;6.314;2023-07-31T03:03:17;25.73;;;14.03;;
10851;SDS011;5479;52.046;6.314;2023-07-31T03:05:47;28.83;;;13.60;;
10851;SDS011;5479;52.046;6.314;2023-07-31T03:08:15;23.77;;;13.00;;
10851;SDS011;5479;52.046;6.314;2023-07-31T03:10:43;29.53;;;13.60;;
10851;SDS011;5479;52.046;6.314;2023-07-31T03:13:11;30.30;;;14.47;;
10851;SDS011;5479;52.046;6.314;2023-07-31T03:15:41;29.03;;;14.47;;
10851;SDS011;5479;52.046;6.314;2023-07-31T03:18:08;28.67;;;13.87;;
10851;SDS011;5479;52.046;6.314;2023-07-31T03:20:36;28.70;;;14.53;;
10851;SDS011;5479;52.046;6.314;2023-07-31T03:23:06;26.23;;;14.20;;
10851;SDS011;5479;52.046;6.314;2023-07-31T03:25:34;26.13;;;13.33;;
10851;SDS011;5479;52.046;6.314;2023-07-31T03:28:03;26.40;;;13.53;;
10851;SDS011;5479;52.046;6.314;2023-07-31T03:30:32;29.67;;;14.67;;
10851;SDS011;5479;52.046;6.314;2023-07-31T03:33:04;25.37;;;13.70;;
10851;SDS011;5479;52.046;6.314;2023-07-31T03:35:32;29.23;;;14.70;;
10851;SDS011;5479;52.046;6.314;2023-07-31T03:38:00;26.40;;;13.87;;
10851;SDS011;5479;52.046;6.314;2023-07-31T03:40:34;26.30;;;13.87;;
10851;SDS011;5479;52.046;6.314;2023-07-31T03:43:02;30.60;;;13.03;;
10851;SDS011;5479;52.046;6.314;2023-07-31T03:45:30;26.63;;;13.43;;
10851;SDS011;5479;52.046;6.314;2023-07-31T03:47:59;23.67;;;12.00;;
10851;SDS011;5479;52.046;6.314;2023-07-31T03:50:27;24.83;;;12.30;;
10851;SDS011;5479;52.046;6.314;2023-07-31T03:52:55;26.47;;;11.60;;
10851;SDS011;5479;52.046;6.314;2023-07-31T03:55:23;28.07;;;11.90;;
10851;SDS011;5479;52.046;6.314;2023-07-31T03:57:55;26.77;;;11.60;;
10851;SDS011;5479;52.046;6.314;2023-07-31T04:00:23;20.37;;;11.40;;
10851;SDS011;5479;52.046;6.314;2023-07-31T04:02:52;24.10;;;12.37;;
10851;SDS011;5479;52.046;6.314;2023-07-31T04:05:20;24.87;;;11.13;;
10851;SDS011;5479;52.046;6.314;2023-07-31T04:07:48;24.93;;;11.33;;
10851;SDS011;5479;52.046;6.314;2023-07-31T04:10:18;23.47;;;10.83;;
10851;SDS011;5479;52.046;6.314;2023-07-31T04:12:47;22.60;;;10.47;;
10851;SDS011;5479;52.046;6.314;2023-07-31T04:15:17;22.97;;;9.70;;
10851;SDS011;5479;52.046;6.314;2023-07-31T04:17:45;24.60;;;9.37;;
10851;SDS011;5479;52.046;6.314;2023-07-31T04:20:13;21.77;;;10.43;;
10851;SDS011;5479;52.046;6.314;2023-07-31T04:22:41;22.53;;;9.43;;
10851;SDS011;5479;52.046;6.314;2023-07-31T04:25:09;22.40;;;9.43;;
10851;SDS011;5479;52.046;6.314;2023-07-31T04:27:39;18.67;;;8.70;;
10851;SDS011;5479;52.046;6.314;2023-07-31T04:30:08;19.70;;;8.77;;
10851;SDS011;5479;52.046;6.314;2023-07-31T04:32:37;17.30;;;8.37;;
10851;SDS011;5479;52.046;6.314;2023-07-31T04:35:05;18.33;;;9.17;;
10851;SDS011;5479;52.046;6.314;2023-07-31T04:37:34;20.13;;;8.60;;
10851;SDS011;5479;52.046;6.314;2023-07-31T04:40:02;20.63;;;9.40;;
10851;SDS011;5479;52.046;6.314;2023-07-31T04:42:30;20.50;;;8.83;;
10851;SDS011;5479;52.046;6.314;2023-07-31T04:44:58;24.07;;;8.90;;
10851;SDS011;5479;52.046;6.314;2023-07-31T04:47:27;21.47;;;8.77;;
10851;SDS011;5479;52.046;6.314;2023-07-31T04:49:56;19.67;;;8.87;;
10851;SDS011;5479;52.046;6.314;2023-07-31T04:52:24;21.67;;;8.73;;
10851;SDS011;5479;52.046;6.314;2023-07-31T04:54:52;19.80;;;8.67;;
10851;SDS011;5479;52.046;6.314;2023-07-31T04:57:20;21.33;;;8.67;;
10851;SDS011;5479;52.046;6.314;2023-07-31T04:59:48;17.30;;;8.07;;
10851;SDS011;5479;52.046;6.314;2023-07-31T05:02:16;19.43;;;8.83;;
10851;SDS011;5479;52.046;6.314;2023-07-31T05:04:44;18.67;;;8.53;;
10851;SDS011;5479;52.046;6.314;2023-07-31T05:07:14;19.93;;;8.33;;
10851;SDS011;5479;52.046;6.314;2023-07-31T05:09:43;18.67;;;8.23;;
10851;SDS011;5479;52.046;6.314;2023-07-31T05:12:11;16.10;;;7.83;;
10851;SDS011;5479;52.046;6.314;2023-07-31T05:14:42;15.47;;;7.90;;
10851;SDS011;5479;52.046;6.314;2023-07-31T05:17:12;17.27;;;8.00;;
10851;SDS011;5479;52.046;6.314;2023-07-31T05:19:40;18.03;;;8.43;;
10851;SDS011;5479;52.046;6.314;2023-07-31T05:22:08;16.03;;;7.83;;
10851;SDS011;5479;52.046;6.314;2023-07-31T05:24:37;19.63;;;8.37;;
10851;SDS011;5479;52.046;6.314;2023-07-31T05:27:06;19.47;;;8.77;;
10851;SDS011;5479;52.046;6.314;2023-07-31T05:29:34;17.87;;;8.20;;
10851;SDS011;5479;52.046;6.314;2023-07-31T05:32:03;17.33;;;8.17;;
10851;SDS011;5479;52.046;6.314;2023-07-31T05:34:34;16.43;;;7.87;;
10851;SDS011;5479;52.046;6.314;2023-07-31T05:37:02;18.40;;;8.23;;
10851;SDS011;5479;52.046;6.314;2023-07-31T05:39:30;16.17;;;7.43;;
10851;SDS011;5479;52.046;6.314;2023-07-31T05:42:00;16.63;;;7.67;;
10851;SDS011;5479;52.046;6.314;2023-07-31T05:44:28;16.53;;;6.93;;
10851;SDS011;5479;52.046;6.314;2023-07-31T05:46:56;18.80;;;7.70;;
10851;SDS011;5479;52.046;6.314;2023-07-31T05:49:24;16.23;;;7.93;;
10851;SDS011;5479;52.046;6.314;2023-07-31T05:51:58;20.53;;;8.07;;
10851;SDS011;5479;52.046;6.314;2023-07-31T05:54:26;15.37;;;7.50;;
10851;SDS011;5479;52.046;6.314;2023-07-31T05:56:55;14.73;;;7.03;;
10851;SDS011;5479;52.046;6.314;2023-07-31T05:59:24;14.90;;;6.77;;
10851;SDS011;5479;52.046;6.314;2023-07-31T06:01:52;15.17;;;7.20;;
10851;SDS011;5479;52.046;6.314;2023-07-31T06:04:20;17.27;;;7.10;;
10851;SDS011;5479;52.046;6.314;2023-07-31T06:06:51;16.33;;;7.53;;
10851;SDS011;5479;52.046;6.314;2023-07-31T06:09:21;15.00;;;6.73;;
10851;SDS011;5479;52.046;6.314;2023-07-31T06:11:49;15.10;;;7.13;;
10851;SDS011;5479;52.046;6.314;2023-07-31T06:14:17;19.03;;;7.10;;
10851;SDS011;5479;52.046;6.314;2023-07-31T06:16:46;16.77;;;7.27;;
10851;SDS011;5479;52.046;6.314;2023-07-31T06:19:14;16.03;;;8.50;;
10851;SDS011;5479;52.046;6.314;2023-07-31T06:24:15;18.17;;;8.20;;
10851;SDS011;5479;52.046;6.314;2023-07-31T06:26:46;17.47;;;8.20;;
10851;SDS011;5479;52.046;6.314;2023-07-31T06:29:14;15.30;;;8.17;;
10851;SDS011;5479;52.046;6.314;2023-07-31T06:31:42;15.40;;;8.30;;
10851;SDS011;5479;52.046;6.314;2023-07-31T06:34:11;14.90;;;7.93;;
10851;SDS011;5479;52.046;6.314;2023-07-31T06:36:41;17.90;;;8.37;;
10851;SDS011;5479;52.046;6.314;2023-07-31T06:39:09;18.47;;;7.20;;
10851;SDS011;5479;52.046;6.314;2023-07-31T06:41:40;16.53;;;8.30;;
10851;SDS011;5479;52.046;6.314;2023-07-31T06:44:11;14.57;;;7.70;;
10851;SDS011;5479;52.046;6.314;2023-07-31T06:46:39;12.93;;;7.50;;
10851;SDS011;5479;52.046;6.314;2023-07-31T06:49:12;14.33;;;7.47;;
10851;SDS011;5479;52.046;6.314;2023-07-31T06:51:42;14.97;;;7.33;;
10851;SDS011;5479;52.046;6.314;2023-07-31T06:54:10;12.03;;;6.47;;
10851;SDS011;5479;52.046;6.314;2023-07-31T06:56:38;14.33;;;6.53;;
10851;SDS011;5479;52.046;6.314;2023-07-31T06:59:06;9.10;;;6.30;;
10851;SDS011;5479;52.046;6.314;2023-07-31T07:01:36;10.13;;;6.27;;
10851;SDS011;5479;52.046;6.314;2023-07-31T07:04:04;11.77;;;6.27;;
10851;SDS011;5479;52.046;6.314;2023-07-31T07:06:33;12.23;;;6.30;;
10851;SDS011;5479;52.046;6.314;2023-07-31T07:09:01;10.23;;;6.00;;
10851;SDS011;5479;52.046;6.314;2023-07-31T07:11:30;14.27;;;6.47;;
10851;SDS011;5479;52.046;6.314;2023-07-31T07:14:00;9.37;;;5.53;;
10851;SDS011;5479;52.046;6.314;2023-07-31T07:16:28;11.83;;;5.20;;
10851;SDS011;5479;52.046;6.314;2023-07-31T07:18:57;10.40;;;5.40;;
10851;SDS011;5479;52.046;6.314;2023-07-31T07:21:24;9.57;;;4.90;;
10851;SDS011;5479;52.046;6.314;2023-07-31T07:23:54;9.43;;;4.87;;
10851;SDS011;5479;52.046;6.314;2023-07-31T07:26:22;8.73;;;4.90;;
10851;SDS011;5479;52.046;6.314;2023-07-31T07:28:50;9.43;;;4.90;;
10851;SDS011;5479;52.046;6.314;2023-07-31T07:31:18;8.10;;;4.07;;
10851;SDS011;5479;52.046;6.314;2023-07-31T07:33:49;7.20;;;4.23;;
10851;SDS011;5479;52.046;6.314;2023-07-31T07:36:17;7.23;;;3.80;;
10851;SDS011;5479;52.046;6.314;2023-07-31T07:38:46;6.50;;;3.70;;
10851;SDS011;5479;52.046;6.314;2023-07-31T07:41:15;5.67;;;3.87;;
10851;SDS011;5479;52.046;6.314;2023-07-31T07:43:46;6.13;;;3.20;;
10851;SDS011;5479;52.046;6.314;2023-07-31T07:46:14;5.50;;;3.20;;
10851;SDS011;5479;52.046;6.314;2023-07-31T07:48:42;3.80;;;2.43;;
10851;SDS011;5479;52.046;6.314;2023-07-31T07:51:10;4.97;;;2.60;;
10851;SDS011;5479;52.046;6.314;2023-07-31T07:53:39;5.37;;;2.60;;
10851;SDS011;5479;52.046;6.314;2023-07-31T07:56:07;4.10;;;2.23;;
10851;SDS011;5479;52.046;6.314;2023-07-31T07:58:37;4.83;;;2.70;;
10851;SDS011;5479;52.046;6.314;2023-07-31T08:01:05;4.57;;;2.33;;
10851;SDS011;5479;52.046;6.314;2023-07-31T08:03:35;4.35;;;2.40;;
10851;SDS011;5479;52.046;6.314;2023-07-31T08:06:03;3.73;;;2.30;;
10851;SDS011;5479;52.046;6.314;2023-07-31T08:08:31;3.10;;;2.20;;
10851;SDS011;5479;52.046;6.314;2023-07-31T08:10:59;3.73;;;2.10;;
10851;SDS011;5479;52.046;6.314;2023-07-31T08:13:30;3.37;;;2.47;;
10851;SDS011;5479;52.046;6.314;2023-07-31T08:16:01;4.40;;;2.40;;
10851;SDS011;5479;52.046;6.314;2023-07-31T08:18:30;3.47;;;2.20;;
10851;SDS011;5479;52.046;6.314;2023-07-31T08:20:58;3.77;;;2.40;;
10851;SDS011;5479;52.046;6.314;2023-07-31T08:23:27;3.53;;;2.10;;
10851;SDS011;5479;52.046;6.314;2023-07-31T08:25:55;3.47;;;2.20;;
10851;SDS011;5479;52.046;6.314;2023-07-31T08:28:25;4.30;;;2.50;;
10851;SDS011;5479;52.046;6.314;2023-07-31T08:30:54;4.13;;;2.70;;
10851;SDS011;5479;52.046;6.314;2023-07-31T08:33:24;5.13;;;2.93;;
10851;SDS011;5479;52.046;6.314;2023-07-31T08:35:52;4.90;;;2.92;;
10851;SDS011;5479;52.046;6.314;2023-07-31T08:38:21;4.55;;;3.00;;
10851;SDS011;5479;52.046;6.314;2023-07-31T08:40:51;3.60;;;2.60;;
10851;SDS011;5479;52.046;6.314;2023-07-31T08:43:20;3.23;;;2.40;;
10851;SDS011;5479;52.046;6.314;2023-07-31T08:45:50;4.78;;;3.28;;
10851;SDS011;5479;52.046;6.314;2023-07-31T08:48:18;4.28;;;3.03;;
10851;SDS011;5479;52.046;6.314;2023-07-31T08:50:51;4.28;;;2.85;;
10851;SDS011;5479;52.046;6.314;2023-07-31T08:53:19;4.75;;;3.00;;
10851;SDS011;5479;52.046;6.314;2023-07-31T08:55:47;4.45;;;3.40;;
10851;SDS011;5479;52.046;6.314;2023-07-31T08:58:16;4.70;;;3.42;;
10851;SDS011;5479;52.046;6.314;2023-07-31T09:00:45;5.33;;;3.33;;
10851;SDS011;5479;52.046;6.314;2023-07-31T09:03:17;4.70;;;3.08;;
10851;SDS011;5479;52.046;6.314;2023-07-31T09:05:46;5.20;;;3.70;;
10851;SDS011;5479;52.046;6.314;2023-07-31T09:08:18;4.78;;;3.60;;
10851;SDS011;5479;52.046;6.314;2023-07-31T09:10:48;5.03;;;3.60;;
10851;SDS011;5479;52.046;6.314;2023-07-31T09:13:18;5.67;;;3.50;;
10851;SDS011;5479;52.046;6.314;2023-07-31T09:15:46;4.88;;;3.25;;
10851;SDS011;5479;52.046;6.314;2023-07-31T09:18:14;4.95;;;3.42;;
10851;SDS011;5479;52.046;6.314;2023-07-31T09:20:45;5.10;;;3.60;;
10851;SDS011;5479;52.046;6.314;2023-07-31T09:23:13;5.20;;;3.10;;
10851;SDS011;5479;52.046;6.314;2023-07-31T09:25:44;7.20;;;3.25;;
10851;SDS011;5479;52.046;6.314;2023-07-31T09:28:13;5.10;;;3.30;;
10851;SDS011;5479;52.046;6.314;2023-07-31T09:30:45;5.07;;;3.28;;
10851;SDS011;5479;52.046;6.314;2023-07-31T09:33:14;4.80;;;3.30;;
10851;SDS011;5479;52.046;6.314;2023-07-31T09:35:43;5.47;;;3.58;;
10851;SDS011;5479;52.046;6.314;2023-07-31T09:38:12;6.63;;;3.67;;
10851;SDS011;5479;52.046;6.314;2023-07-31T09:40:41;6.25;;;3.53;;
10851;SDS011;5479;52.046;6.314;2023-07-31T09:43:13;5.20;;;3.75;;
10851;SDS011;5479;52.046;6.314;2023-07-31T09:45:55;5.18;;;3.80;;
10851;SDS011;5479;52.046;6.314;2023-07-31T09:48:26;5.38;;;3.83;;
10851;SDS011;5479;52.046;6.314;2023-07-31T09:50:54;6.35;;;4.00;;
10851;SDS011;5479;52.046;6.314;2023-07-31T09:53:28;5.85;;;3.85;;
10851;SDS011;5479;52.046;6.314;2023-07-31T09:55:57;4.90;;;3.63;;
10851;SDS011;5479;52.046;6.314;2023-07-31T09:58:27;5.85;;;4.00;;
10851;SDS011;5479;52.046;6.314;2023-07-31T10:00:57;7.43;;;4.40;;
10851;SDS011;5479;52.046;6.314;2023-07-31T10:03:26;6.28;;;4.22;;
10851;SDS011;5479;52.046;6.314;2023-07-31T10:05:56;6.18;;;4.20;;
10851;SDS011;5479;52.046;6.314;2023-07-31T10:08:26;5.63;;;4.30;;
10851;SDS011;5479;52.046;6.314;2023-07-31T10:10:59;6.25;;;4.47;;
10851;SDS011;5479;52.046;6.314;2023-07-31T10:13:30;5.70;;;4.55;;
10851;SDS011;5479;52.046;6.314;2023-07-31T10:15:59;6.55;;;5.13;;
10851;SDS011;5479;52.046;6.314;2023-07-31T10:18:28;7.15;;;5.28;;
10851;SDS011;5479;52.046;6.314;2023-07-31T10:20:57;8.15;;;5.47;;
10851;SDS011;5479;52.046;6.314;2023-07-31T10:23:25;8.52;;;5.90;;
10851;SDS011;5479;52.046;6.314;2023-07-31T10:25:54;10.25;;;6.55;;
10851;SDS011;5479;52.046;6.314;2023-07-31T10:28:24;9.07;;;6.30;;
10851;SDS011;5479;52.046;6.314;2023-07-31T10:30:54;8.32;;;7.00;;
10851;SDS011;5479;52.046;6.314;2023-07-31T10:33:23;8.57;;;7.03;;
10851;SDS011;5479;52.046;6.314;2023-07-31T10:35:53;9.10;;;7.20;;
10851;SDS011;5479;52.046;6.314;2023-07-31T10:38:40;9.70;;;7.47;;
10851;SDS011;5479;52.046;6.314;2023-07-31T10:41:09;9.55;;;6.75;;
10851;SDS011;5479;52.046;6.314;2023-07-31T10:43:37;10.30;;;7.68;;
10851;SDS011;5479;52.046;6.314;2023-07-31T10:46:07;11.27;;;7.82;;
10851;SDS011;5479;52.046;6.314;2023-07-31T10:48:36;8.85;;;7.70;;
10851;SDS011;5479;52.046;6.314;2023-07-31T10:51:08;9.77;;;7.60;;
10851;SDS011;5479;52.046;6.314;2023-07-31T10:53:38;9.30;;;7.30;;
10851;SDS011;5479;52.046;6.314;2023-07-31T10:56:08;9.55;;;7.10;;
10851;SDS011;5479;52.046;6.314;2023-07-31T10:58:39;12.40;;;7.68;;
10851;SDS011;5479;52.046;6.314;2023-07-31T11:01:08;10.23;;;7.80;;
10851;SDS011;5479;52.046;6.314;2023-07-31T11:03:43;9.85;;;7.60;;
10851;SDS011;5479;52.046;6.314;2023-07-31T11:06:12;9.85;;;7.13;;
10851;SDS011;5479;52.046;6.314;2023-07-31T11:08:42;8.73;;;7.00;;
10851;SDS011;5479;52.046;6.314;2023-07-31T11:11:12;9.27;;;6.97;;
10851;SDS011;5479;52.046;6.314;2023-07-31T11:13:42;9.05;;;7.30;;
10851;SDS011;5479;52.046;6.314;2023-07-31T11:16:13;9.45;;;7.43;;
10851;SDS011;5479;52.046;6.314;2023-07-31T11:18:42;10.20;;;7.90;;
10851;SDS011;5479;52.046;6.314;2023-07-31T11:21:11;10.60;;;8.00;;
10851;SDS011;5479;52.046;6.314;2023-07-31T11:23:40;11.48;;;7.40;;
10851;SDS011;5479;52.046;6.314;2023-07-31T11:26:08;11.27;;;7.45;;
10851;SDS011;5479;52.046;6.314;2023-07-31T11:28:42;11.00;;;7.10;;
10851;SDS011;5479;52.046;6.314;2023-07-31T11:31:15;11.40;;;8.35;;
10851;SDS011;5479;52.046;6.314;2023-07-31T11:33:43;9.38;;;7.80;;
10851;SDS011;5479;52.046;6.314;2023-07-31T11:36:14;10.15;;;7.68;;
10851;SDS011;5479;52.046;6.314;2023-07-31T11:38:43;11.35;;;7.82;;
10851;SDS011;5479;52.046;6.314;2023-07-31T11:41:13;9.93;;;7.45;;
10851;SDS011;5479;52.046;6.314;2023-07-31T11:43:42;11.18;;;8.25;;
10851;SDS011;5479;52.046;6.314;2023-07-31T11:46:10;10.18;;;8.38;;
10851;SDS011;5479;52.046;6.314;2023-07-31T11:48:39;11.65;;;8.20;;
10851;SDS011;5479;52.046;6.314;2023-07-31T11:51:08;11.45;;;8.55;;
10851;SDS011;5479;52.046;6.314;2023-07-31T11:53:38;10.13;;;8.45;;
10851;SDS011;5479;52.046;6.314;2023-07-31T11:56:10;10.50;;;8.07;;
10851;SDS011;5479;52.046;6.314;2023-07-31T11:58:41;11.13;;;9.20;;
10851;SDS011;5479;52.046;6.314;2023-07-31T12:01:13;11.57;;;8.55;;
10851;SDS011;5479;52.046;6.314;2023-07-31T12:03:44;11.10;;;8.85;;
10851;SDS011;5479;52.046;6.314;2023-07-31T12:06:13;12.75;;;8.95;;
10851;SDS011;5479;52.046;6.314;2023-07-31T12:08:41;11.73;;;8.07;;
10851;SDS011;5479;52.046;6.314;2023-07-31T12:11:10;12.93;;;8.43;;
10851;SDS011;5479;52.046;6.314;2023-07-31T12:13:38;10.88;;;7.25;;
10851;SDS011;5479;52.046;6.314;2023-07-31T12:16:06;10.40;;;7.68;;
10851;SDS011;5479;52.046;6.314;2023-07-31T12:18:34;9.10;;;6.93;;
10851;SDS011;5479;52.046;6.314;2023-07-31T12:21:05;10.63;;;7.25;;
10851;SDS011;5479;52.046;6.314;2023-07-31T12:23:35;8.73;;;7.00;;
10851;SDS011;5479;52.046;6.314;2023-07-31T12:26:04;10.05;;;7.45;;
10851;SDS011;5479;52.046;6.314;2023-07-31T12:28:36;10.20;;;7.15;;
10851;SDS011;5479;52.046;6.314;2023-07-31T12:31:05;9.85;;;7.25;;
10851;SDS011;5479;52.046;6.314;2023-07-31T12:33:34;10.95;;;7.68;;
10851;SDS011;5479;52.046;6.314;2023-07-31T12:36:07;10.13;;;6.57;;
10851;SDS011;5479;52.046;6.314;2023-07-31T12:38:36;8.73;;;6.20;;
10851;SDS011;5479;52.046;6.314;2023-07-31T12:41:04;8.50;;;6.85;;
10851;SDS011;5479;52.046;6.314;2023-07-31T12:43:33;8.43;;;6.68;;
10851;SDS011;5479;52.046;6.314;2023-07-31T12:46:02;9.63;;;6.43;;
10851;SDS011;5479;52.046;6.314;2023-07-31T12:48:31;8.13;;;6.40;;
10851;SDS011;5479;52.046;6.314;2023-07-31T12:50:59;10.95;;;6.47;;
10851;SDS011;5479;52.046;6.314;2023-07-31T12:53:28;9.48;;;6.85;;
10851;SDS011;5479;52.046;6.314;2023-07-31T12:55:57;9.40;;;5.90;;
10851;SDS011;5479;52.046;6.314;2023-07-31T12:58:25;9.65;;;6.10;;
10851;SDS011;5479;52.046;6.314;2023-07-31T13:00:53;8.82;;;6.20;;
10851;SDS011;5479;52.046;6.314;2023-07-31T13:03:21;8.13;;;6.05;;
10851;SDS011;5479;52.046;6.314;2023-07-31T13:05:48;9.63;;;6.00;;
10851;SDS011;5479;52.046;6.314;2023-07-31T13:08:18;8.35;;;6.10;;
10851;SDS011;5479;52.046;6.314;2023-07-31T13:10:48;8.15;;;6.05;;
10851;SDS011;5479;52.046;6.314;2023-07-31T13:13:16;8.40;;;6.85;;
10851;SDS011;5479;52.046;6.314;2023-07-31T13:15:44;8.13;;;6.57;;
10851;SDS011;5479;52.046;6.314;2023-07-31T13:18:12;10.38;;;7.15;;
10851;SDS011;5479;52.046;6.314;2023-07-31T13:20:40;10.23;;;7.25;;
10851;SDS011;5479;52.046;6.314;2023-07-31T13:23:08;9.45;;;7.00;;
10851;SDS011;5479;52.046;6.314;2023-07-31T13:25:36;11.20;;;7.72;;
10851;SDS011;5479;52.046;6.314;2023-07-31T13:28:05;9.38;;;7.10;;
10851;SDS011;5479;52.046;6.314;2023-07-31T13:30:33;9.70;;;7.70;;
10851;SDS011;5479;52.046;6.314;2023-07-31T13:33:01;10.27;;;7.22;;
10851;SDS011;5479;52.046;6.314;2023-07-31T13:35:30;9.88;;;6.70;;
10851;SDS011;5479;52.046;6.314;2023-07-31T13:37:58;8.32;;;6.30;;
10851;SDS011;5479;52.046;6.314;2023-07-31T13:40:26;7.95;;;5.85;;
10851;SDS011;5479;52.046;6.314;2023-07-31T13:42:55;9.60;;;6.00;;
10851;SDS011;5479;52.046;6.314;2023-07-31T13:45:32;8.23;;;6.03;;
10851;SDS011;5479;52.046;6.314;2023-07-31T13:48:01;8.63;;;5.93;;
10851;SDS011;5479;52.046;6.314;2023-07-31T13:50:30;8.65;;;5.88;;
10851;SDS011;5479;52.046;6.314;2023-07-31T13:52:58;8.65;;;5.78;;
10851;SDS011;5479;52.046;6.314;2023-07-31T13:55:26;8.07;;;5.32;;
10851;SDS011;5479;52.046;6.314;2023-07-31T13:57:55;8.60;;;5.78;;
10851;SDS011;5479;52.046;6.314;2023-07-31T14:00:23;7.18;;;5.45;;
10851;SDS011;5479;52.046;6.314;2023-07-31T14:02:52;8.55;;;5.28;;
10851;SDS011;5479;52.046;6.314;2023-07-31T14:05:20;7.47;;;4.90;;
10851;SDS011;5479;52.046;6.314;2023-07-31T14:07:48;6.72;;;5.03;;
10851;SDS011;5479;52.046;6.314;2023-07-31T14:10:16;7.78;;;5.20;;
10851;SDS011;5479;52.046;6.314;2023-07-31T14:12:45;6.68;;;4.70;;
10851;SDS011;5479;52.046;6.314;2023-07-31T14:15:13;7.15;;;4.82;;
10851;SDS011;5479;52.046;6.314;2023-07-31T14:17:41;7.40;;;4.68;;
10851;SDS011;5479;52.046;6.314;2023-07-31T14:20:11;7.97;;;5.30;;
10851;SDS011;5479;52.046;6.314;2023-07-31T14:22:40;8.70;;;5.72;;
10851;SDS011;5479;52.046;6.314;2023-07-31T14:25:08;7.93;;;5.65;;
10851;SDS011;5479;52.046;6.314;2023-07-31T14:27:37;7.63;;;5.20;;
10851;SDS011;5479;52.046;6.314;2023-07-31T14:30:06;9.93;;;5.78;;
10851;SDS011;5479;52.046;6.314;2023-07-31T14:32:35;8.00;;;5.63;;
10851;SDS011;5479;52.046;6.314;2023-07-31T14:35:03;9.35;;;6.00;;
10851;SDS011;5479;52.046;6.314;2023-07-31T14:37:38;8.23;;;6.05;;
10851;SDS011;5479;52.046;6.314;2023-07-31T14:40:07;8.50;;;5.93;;
10851;SDS011;5479;52.046;6.314;2023-07-31T14:42:36;9.73;;;6.40;;
10851;SDS011;5479;52.046;6.314;2023-07-31T14:45:05;8.93;;;6.53;;
10851;SDS011;5479;52.046;6.314;2023-07-31T14:47:34;10.68;;;6.97;;
10851;SDS011;5479;52.046;6.314;2023-07-31T14:50:02;10.90;;;7.15;;
10851;SDS011;5479;52.046;6.314;2023-07-31T14:52:31;8.25;;;6.47;;
10851;SDS011;5479;52.046;6.314;2023-07-31T14:55:00;12.10;;;6.38;;
10851;SDS011;5479;52.046;6.314;2023-07-31T14:57:28;11.38;;;6.80;;
10851;SDS011;5479;52.046;6.314;2023-07-31T14:59:56;8.25;;;6.35;;
10851;SDS011;5479;52.046;6.314;2023-07-31T15:02:25;10.85;;;6.90;;
10851;SDS011;5479;52.046;6.314;2023-07-31T15:04:54;10.55;;;6.32;;
10851;SDS011;5479;52.046;6.314;2023-07-31T15:07:22;8.82;;;6.40;;
10851;SDS011;5479;52.046;6.314;2023-07-31T15:09:50;9.65;;;6.47;;
10851;SDS011;5479;52.046;6.314;2023-07-31T15:12:19;8.65;;;6.38;;